ADDS METAR Data INFO
IDs: Format: Raw Decoded Include TAF

Data at: 0026 UTC 15 Dec 2017

KI67 150015Z AUTO 00000KT 10SM CLR M04/M08 A3010 RMK AO1
KI67 142355Z AUTO 00000KT 10SM CLR M03/M09 A3010 RMK AO1
KI67 142335Z AUTO 00000KT 10SM CLR M03/M09 A3010 RMK AO1
KI67 142315Z AUTO 00000KT 10SM CLR M03/M09 A3010 RMK AO1
KI67 142255Z AUTO 00000KT 10SM CLR M03/M09 A3009 RMK AO1
KI67 142235Z AUTO 00000KT 10SM CLR M03/M09 A3009 RMK AO1
KI67 142215Z AUTO 00000KT 10SM CLR M03/M09 A3008 RMK AO1
KI67 142155Z AUTO 00000KT 10SM CLR M03/M09 A3008 RMK AO1
KI67 142135Z AUTO 05003KT 10SM SCT029 M02/M09 A3007 RMK AO1
KI67 142115Z AUTO 00000KT 10SM SCT027 M02/M09 A3006 RMK AO1
KI67 142055Z AUTO 03003KT 10SM BKN027 M02/M09 A3006 RMK AO1
KI67 142035Z AUTO 36003KT 10SM SCT027 M01/M08 A3005 RMK AO1
KI67 142015Z AUTO 00000KT 10SM SCT025 M02/M09 A3005 RMK AO1
KI67 141955Z AUTO 03006KT 10SM BKN025 M01/M08 A3005 RMK AO1
KI67 141935Z AUTO 03004KT 10SM BKN025 M03/M09 A3006 RMK AO1
KI67 141915Z AUTO 06003KT 10SM OVC023 M02/M09 A3005 RMK AO1
KI67 141855Z AUTO 03005KT 10SM OVC023 M02/M08 A3005 RMK AO1
KI67 141835Z AUTO 06006KT 10SM OVC023 M03/M08 A3006 RMK AO1
KI67 141815Z AUTO 05006KT 10SM OVC023 M03/M08 A3006 RMK AO1
KI67 141755Z AUTO 05008KT 10SM OVC023 M02/M08 A3006 RMK AO1
KI67 141735Z AUTO 36004KT 10SM OVC023 M03/M08 A3005 RMK AO1
KI67 141715Z AUTO 04006KT 10SM OVC021 M03/M08 A3005 RMK AO1
KI67 141655Z AUTO 03007KT 10SM OVC021 M03/M08 A3006 RMK AO1
KI67 141635Z AUTO 01006KT 10SM OVC021 M03/M08 A3006 RMK AO1
KI67 141615Z AUTO 02004KT 10SM OVC021 M03/M08 A3005 RMK AO1
KI67 141555Z AUTO 01005KT 10SM OVC021 M03/M08 A3005 RMK AO1
KI67 141535Z AUTO 03006KT 10SM OVC021 M03/M08 A3004 RMK AO1
KI67 141515Z AUTO 03004KT 10SM OVC023 M03/M08 A3003 RMK AO1
KI67 141455Z AUTO 03005KT 10SM OVC023 M03/M08 A3002 RMK AO1
KI67 141435Z AUTO 02007KT 10SM OVC023 M03/M08 A3001 RMK AO1
KI67 141415Z AUTO 02007KT 10SM OVC023 M03/M08 A3001 RMK AO1
KI67 141355Z AUTO 05007KT 10SM OVC023 M03/M08 A2999 RMK AO1
KI67 141335Z AUTO 04007KT 10SM OVC023 M03/M08 A2998 RMK AO1
KI67 141315Z AUTO 02005KT 10SM OVC023 M03/M08 A2997 RMK AO1
KI67 141255Z AUTO 36005KT 10SM BKN023 M03/M08 A2997 RMK AO1
KI67 141235Z AUTO 36005KT 10SM SCT023 M03/M08 A2996 RMK AO1
KI67 141215Z AUTO 36003KT 10SM SCT025 M03/M08 A2994 RMK AO1
KI67 141155Z AUTO 36004KT 10SM SCT025 M03/M08 A2993 RMK AO1
KI67 141135Z AUTO 02006KT 10SM BKN027 M03/M08 A2992 RMK AO1
KI67 141115Z AUTO 34005KT 10SM SCT029 M02/M08 A2991 RMK AO1
KI67 141055Z AUTO 34007KT 10SM SCT036 M02/M08 A2989 RMK AO1
KI67 141035Z AUTO 32008G15KT 10SM BKN034 M01/M08 A2987 RMK AO1
KI67 141015Z AUTO 34009G16KT 10SM OVC030 00/M07 A2984 RMK AO1
KI67 140955Z AUTO 34008KT 10SM OVC028 00/M06 A2983 RMK AO1
KI67 140935Z AUTO 33006KT 10SM OVC028 00/M06 A2982 RMK AO1
KI67 140915Z AUTO 34004G15KT 10SM OVC028 00/M06 A2982 RMK AO1
KI67 140855Z AUTO 33007G14KT 10SM OVC030 00/M06 A2980 RMK AO1
KI67 140835Z AUTO 32008KT 10SM OVC030 00/M06 A2979 RMK AO1
KI67 140815Z AUTO 32009G14KT 10SM BKN032 OVC040 00/M06 A2977 RMK AO1
KI67 140755Z AUTO 33013G19KT 10SM BKN030 BKN036 OVC042 00/M06 A2976 RMK AO1
KI67 140735Z AUTO 31010G22KT 10SM OVC030 00/M06 A2975 RMK AO1
KI67 140715Z AUTO 31009G16KT 10SM BKN029 BKN037 OVC045 01/M05 A2973 RMK AO1
KI67 140655Z AUTO 30010G26KT 10SM OVC026 01/M04 A2971 RMK AO1
KI67 140635Z AUTO 30012G28KT 10SM OVC028 01/M05 A2969 RMK AO1
KI67 140615Z AUTO 30008G21KT 10SM OVC028 02/M04 A2966 RMK AO1
KI67 140555Z AUTO 30013G19KT 10SM OVC030 02/M03 A2965 RMK AO1
KI67 140535Z AUTO 30017G28KT 10SM BKN034 OVC044 03/M03 A2964 RMK AO1
KI67 140515Z AUTO 28011G25KT 10SM SCT034 OVC044 03/M03 A2962 RMK AO1
KI67 140455Z AUTO 29014G25KT 10SM SCT032 BKN039 OVC045 03/M03 A2960 RMK AO1
KI67 140435Z AUTO 30009G18KT 10SM BKN034 OVC039 04/M02 A2958 RMK AO1
KI67 140415Z AUTO 30020G33KT 10SM BKN036 OVC042 05/M02 A2957 RMK AO1
KI67 140355Z AUTO 29018G23KT 10SM BKN033 OVC041 05/M02 A2956 RMK AO1
KI67 140335Z AUTO 28018G28KT 10SM OVC031 05/M02 A2955 RMK AO1
KI67 140315Z AUTO 27014G27KT 10SM OVC031 05/M01 A2954 RMK AO1
KI67 140255Z AUTO 28021G29KT 10SM BKN029 OVC035 05/M01 A2953 RMK AO1
KI67 140235Z AUTO 27021G36KT 10SM BKN025 OVC030 05/00 A2952 RMK AO1
KI67 140215Z AUTO 27011G28KT 10SM BKN023 OVC030 05/00 A2951 RMK AO1
KI67 140155Z AUTO 29014G27KT 10SM SCT030 SCT036 OVC048 07/M01 A2949 RMK AO1
KI67 140135Z AUTO 26012G18KT 220V280 10SM OVC050 07/M05 A2946 RMK AO1
KI67 140115Z AUTO 23010G15KT 10SM OVC050 06/M06 A2945 RMK AO1
KI67 140055Z AUTO 22008G14KT 10SM OVC050 06/M06 A2944 RMK AO1
KI67 140035Z AUTO 22008G18KT 10SM OVC050 05/M07 A2944 RMK AO1
KI67 140015Z AUTO 22006KT 10SM OVC050 05/M08 A2944 RMK AO1
KI67 132355Z AUTO 21009G15KT 10SM OVC050 05/M08 A2945 RMK AO1
KI67 132335Z AUTO 22008G15KT 10SM BKN050 OVC060 05/M09 A2945 RMK AO1
KI67 132315Z AUTO 22007G23KT 10SM SCT043 SCT050 OVC060 04/M10 A2947 RMK AO1
KI67 132255Z AUTO 22007KT 10SM BKN060 OVC070 03/M10 A2948 RMK AO1
KI67 132235Z AUTO 22008KT 10SM OVC050 03/M11 A2947 RMK AO1
KI67 132215Z AUTO 22009G14KT 10SM OVC050 03/M11 A2948 RMK AO1
KI67 132155Z AUTO 22010G16KT 10SM SCT037 SCT044 OVC050 03/M11 A2949 RMK AO1
KI67 132135Z AUTO 20013G18KT 10SM SCT034 SCT047 BKN065 03/M11 A2947 RMK AO1
KI67 132115Z AUTO 21010G16KT 10SM CLR 03/M11 A2949 RMK AO1
KI67 132055Z AUTO 21010G17KT 10SM CLR 02/M12 A2949 RMK AO1
KI67 132035Z AUTO 21010G20KT 10SM CLR 03/M12 A2952 RMK AO1
KI67 132015Z AUTO 21013G22KT 10SM CLR 02/M12 A2951 RMK AO1
KI67 131955Z AUTO 20013G20KT 10SM SCT110 02/M12 A2949 RMK AO1
KI67 131935Z AUTO 19016G21KT 10SM BKN110 02/M12 A2950 RMK AO1
KI67 131915Z AUTO 18016G22KT 10SM OVC095 01/M12 A2952 RMK AO1
KI67 131855Z AUTO 20013G19KT 10SM OVC095 01/M12 A2956 RMK AO1
KI67 131835Z AUTO 20009G14KT 10SM OVC095 01/M12 A2960 RMK AO1
KI67 131815Z AUTO 19011G16KT 10SM OVC095 00/M12 A2963 RMK AO1
KI67 131755Z AUTO 20011G17KT 10SM OVC085 00/M12 A2964 RMK AO1
KI67 131735Z AUTO 20013G22KT 10SM OVC085 00/M12 A2968 RMK AO1
KI67 131715Z AUTO 20013G19KT 10SM SCT070 OVC085 00/M12 A2971 RMK AO1
KI67 131655Z AUTO 20011G15KT 10SM OVC070 M01/M12 A2974 RMK AO1
KI67 131635Z AUTO 19012KT 10SM OVC070 M01/M12 A2977 RMK AO1
KI67 131615Z AUTO 19011G15KT 10SM OVC080 M02/M12 A2979 RMK AO1
KI67 131555Z AUTO 19012KT 10SM OVC080 M02/M12 A2982 RMK AO1
KI67 131535Z AUTO 20010KT 10SM OVC080 M02/M12 A2985 RMK AO1
KI67 131515Z AUTO 20006KT 10SM OVC080 M03/M12 A2986 RMK AO1
KI67 131455Z AUTO 20007KT 10SM OVC080 M03/M12 A2986 RMK AO1
KI67 131435Z AUTO 20006KT 10SM OVC080 M03/M11 A2986 RMK AO1
KI67 131415Z AUTO 20009KT 10SM OVC080 M04/M11 A2988 RMK AO1
KI67 131355Z AUTO 20006KT 10SM OVC080 M05/M11 A2989 RMK AO1
KI67 131335Z AUTO 20004KT 10SM OVC090 M05/M11 A2990 RMK AO1
KI67 131315Z AUTO 21005KT 10SM OVC090 M05/M11 A2991 RMK AO1
KI67 131255Z AUTO 20005KT 10SM OVC090 M06/M11 A2991 RMK AO1
KI67 131235Z AUTO 20005KT 10SM OVC090 M06/M11 A2993 RMK AO1